createdAt,value
2024-01-05T00:02:19.643Z,100617.66
2024-01-05T00:05:23.510Z,100615.94
2024-01-05T00:08:27.371Z,100608.19
2024-01-05T00:11:31.144Z,100605.59
2024-01-05T00:14:39.794Z,100593.56
2024-01-05T00:17:43.659Z,100594.41
2024-01-05T00:20:47.488Z,100595.28
2024-01-05T00:23:53.192Z,100581.50
2024-01-05T00:26:57.019Z,100579.75
2024-01-05T00:30:02.310Z,100570.28
2024-01-05T00:33:06.654Z,100556.50
2024-01-05T00:36:12.326Z,100553.06
2024-01-05T00:39:17.665Z,100557.38
2024-01-05T00:42:21.548Z,100545.31
2024-01-05T00:45:26.849Z,100546.19
2024-01-05T00:48:30.773Z,100538.41
2024-01-05T00:51:34.794Z,100531.53
2024-01-05T00:54:38.620Z,100526.38
2024-01-05T00:57:42.696Z,100530.69
2024-01-05T01:00:48.230Z,100528.09
2024-01-05T01:03:52.162Z,100525.50
2024-01-05T01:06:56.000Z,100528.09
2024-01-05T01:09:59.788Z,100527.25
2024-01-05T01:13:04.426Z,100518.63
2024-01-05T01:16:09.757Z,100521.22
2024-01-05T01:19:13.737Z,100511.72
2024-01-05T01:22:17.865Z,100505.69
2024-01-05T01:25:21.678Z,100504.00
2024-01-05T01:28:25.533Z,100496.22
2024-01-05T01:31:31.864Z,100504.00
2024-01-05T01:34:35.737Z,100509.16
2024-01-05T01:37:39.624Z,100502.25
2024-01-05T01:40:48.146Z,100491.94
2024-01-05T01:43:53.618Z,100495.38
2024-01-05T01:47:00.441Z,100502.25
2024-01-05T01:50:05.156Z,100507.44
2024-01-05T01:53:09.039Z,100500.56
2024-01-05T01:56:14.874Z,100497.97
2024-01-05T01:59:19.196Z,100500.56
2024-01-05T02:02:25.399Z,100495.38
2024-01-05T02:05:30.537Z,100491.94
2024-01-05T02:08:35.384Z,100488.50
2024-01-05T02:11:39.884Z,100487.63
2024-01-05T02:14:43.764Z,100497.94
2024-01-05T02:17:49.167Z,100481.59
2024-01-05T02:20:53.170Z,100487.63
2024-01-05T02:23:59.224Z,100490.22
2024-01-05T02:27:03.226Z,100470.41
2024-01-05T02:30:08.692Z,100478.16
2024-01-05T02:33:12.709Z,100473.84
2024-01-05T02:36:16.608Z,100470.44
2024-01-05T02:39:22.035Z,100462.69
2024-01-05T02:42:26.146Z,100465.28
2024-01-05T02:45:30.161Z,100467.00
2024-01-05T02:48:34.141Z,100476.47
2024-01-05T02:51:38.205Z,100477.31
2024-01-05T02:54:45.622Z,100482.47
2024-01-05T02:57:49.504Z,100486.78
2024-01-05T03:00:53.514Z,100482.47
2024-01-05T03:03:58.771Z,100483.34
2024-01-05T03:07:02.705Z,100480.75
2024-01-05T03:10:09.308Z,100481.59
2024-01-05T03:13:13.144Z,100476.44
2024-01-05T03:16:16.964Z,100473.00
2024-01-05T03:19:20.872Z,100464.41
2024-01-05T03:22:24.729Z,100467.00
2024-01-05T03:25:29.953Z,100471.31
2024-01-05T03:28:33.755Z,100479.06
2024-01-05T03:31:37.757Z,100473.00
2024-01-05T03:34:41.692Z,100474.75
2024-01-05T03:37:45.898Z,100472.16
2024-01-05T03:40:51.619Z,100473.03
2024-01-05T03:43:55.891Z,100470.44
2024-01-05T03:46:59.719Z,100474.75
2024-01-05T03:50:04.081Z,100467.88
2024-01-05T03:53:07.990Z,100457.53
2024-01-05T03:56:13.542Z,100449.78
2024-01-05T03:59:17.422Z,100458.41
2024-01-05T04:02:21.367Z,100454.09
2024-01-05T04:05:25.391Z,100458.41
2024-01-05T04:08:29.332Z,100456.69
2024-01-05T04:11:34.956Z,100443.78
2024-01-05T04:14:38.880Z,100449.78
2024-01-05T04:17:42.815Z,100454.94
2024-01-05T04:20:46.836Z,100440.31
2024-01-05T04:23:51.062Z,100447.22
2024-01-05T04:26:56.515Z,100442.03
2024-01-05T04:30:00.466Z,100444.63
2024-01-05T04:33:04.821Z,100438.59
2024-01-05T04:36:10.117Z,100444.63
2024-01-05T04:39:14.166Z,100443.78
2024-01-05T04:42:19.804Z,100442.06
2024-01-05T04:45:23.709Z,100446.34
2024-01-05T04:48:27.829Z,100448.94
2024-01-05T04:51:32.280Z,100442.88
2024-01-05T04:54:36.467Z,100448.06
2024-01-05T04:57:43.751Z,100447.19
2024-01-05T05:00:49.179Z,100453.22
2024-01-05T05:03:53.138Z,100439.44
2024-01-05T05:06:57.118Z,100448.06
2024-01-05T05:10:01.734Z,100454.97
2024-01-05T05:13:07.009Z,100461.81
2024-01-05T05:16:10.823Z,100457.53
2024-01-05T05:19:15.205Z,100458.38
2024-01-05T05:22:19.277Z,100444.63
2024-01-05T05:25:23.771Z,100433.41
2024-01-05T05:28:29.218Z,100430.81
2024-01-05T05:31:39.153Z,100435.13
2024-01-05T05:34:44.913Z,100429.13
2024-01-05T05:37:49.205Z,100438.56
2024-01-05T05:40:53.280Z,100447.19
2024-01-05T05:43:58.452Z,100442.88
2024-01-05T05:47:02.382Z,100436.00
2024-01-05T05:50:08.090Z,100433.41
2024-01-05T05:53:12.265Z,100434.28
2024-01-05T05:56:16.176Z,100427.41
2024-01-05T05:59:22.806Z,100447.19
2024-01-05T06:02:26.762Z,100452.34
2024-01-05T06:05:30.549Z,100447.19
2024-01-05T06:08:34.586Z,100453.22
2024-01-05T06:11:38.467Z,100451.50
2024-01-05T06:14:43.822Z,100445.47
2024-01-05T06:17:47.706Z,100446.31
2024-01-05T06:20:51.558Z,100457.50
2024-01-05T06:23:56.087Z,100450.63
2024-01-05T06:27:00.061Z,100457.53
2024-01-05T06:30:07.602Z,100467.84
2024-01-05T06:33:11.724Z,100471.28
2024-01-05T06:36:15.603Z,100475.59
2024-01-05T06:39:19.656Z,100468.72
2024-01-05T06:42:23.692Z,100477.31
2024-01-05T06:45:29.055Z,100473.84
2024-01-05T06:48:33.116Z,100466.13
2024-01-05T06:51:40.227Z,100475.59
2024-01-05T06:54:44.015Z,100467.84
2024-01-05T06:57:49.234Z,100466.09
2024-01-05T07:00:54.599Z,100457.50
2024-01-05T07:03:58.670Z,100458.34
2024-01-05T07:07:02.493Z,100457.50
2024-01-05T07:10:07.474Z,100447.16
2024-01-05T07:13:11.235Z,100461.81
2024-01-05T07:16:19.300Z,100478.16
2024-01-05T07:19:23.463Z,100473.84
2024-01-05T07:22:27.735Z,100485.91
2024-01-05T07:25:31.671Z,100470.41
2024-01-05T07:28:35.437Z,100478.16
2024-01-05T07:31:40.849Z,100479.88
2024-01-05T07:34:45.902Z,100490.19
2024-01-05T07:37:50.261Z,100492.75
2024-01-05T07:40:54.124Z,100498.81
2024-01-05T07:43:57.982Z,100479.88
2024-01-05T07:47:03.273Z,100491.06
2024-01-05T07:50:07.700Z,100489.34
2024-01-05T07:53:11.668Z,100493.66
2024-01-05T07:56:15.541Z,100505.69
2024-01-05T07:59:19.341Z,100498.75
2024-01-05T08:02:24.722Z,100503.97
2024-01-05T08:05:28.607Z,100513.44
2024-01-05T08:08:32.496Z,100512.59
2024-01-05T08:11:36.255Z,100498.78
2024-01-05T08:14:40.921Z,100481.56
2024-01-05T08:17:46.147Z,100485.91
2024-01-05T08:20:50.109Z,100487.63
2024-01-05T08:23:53.947Z,100510.00
2024-01-05T08:26:58.043Z,100508.28
2024-01-05T08:30:01.906Z,100502.25
2024-01-05T08:33:07.757Z,100502.25
2024-01-05T08:36:11.632Z,100506.53
2024-01-05T08:39:15.504Z,100513.44
2024-01-05T08:42:19.401Z,100510.84
2024-01-05T08:45:39.559Z,100510.00
2024-01-05T08:48:47.046Z,100515.16
2024-01-05T08:51:51.116Z,100510.84
2024-01-05T08:54:54.899Z,100516.03
2024-01-05T08:57:58.696Z,100521.19
2024-01-05T09:01:03.054Z,100522.91
2024-01-05T09:04:11.837Z,100520.31
2024-01-05T09:07:16.160Z,100530.66
2024-01-05T09:10:20.327Z,100519.47
2024-01-05T09:13:24.284Z,100525.50
2024-01-05T09:16:28.208Z,100528.06
2024-01-05T09:19:33.937Z,100532.38
2024-01-05T09:22:39.669Z,100525.50
2024-01-05T09:25:46.484Z,100529.78
2024-01-05T09:28:50.885Z,100533.22
2024-01-05T09:31:54.746Z,100537.56
2024-01-05T09:35:00.083Z,100522.88
2024-01-05T09:38:04.129Z,100515.13
2024-01-05T09:41:13.653Z,100511.69
2024-01-05T09:44:19.287Z,100514.28
2024-01-05T09:47:24.274Z,100509.09
2024-01-05T09:50:31.424Z,100512.53
2024-01-05T09:53:38.681Z,100510.81
2024-01-05T09:56:47.899Z,100502.19
2024-01-05T09:59:52.730Z,100505.66
2024-01-05T10:03:06.230Z,100495.28
2024-01-05T10:06:11.699Z,100485.81
2024-01-05T10:09:15.564Z,100485.81
2024-01-05T10:12:20.298Z,100473.75
2024-01-05T10:15:29.637Z,100466.88
2024-01-05T10:18:35.416Z,100470.28
2024-01-05T10:21:41.499Z,100460.81
2024-01-05T10:24:45.529Z,100453.06
2024-01-05T10:27:51.445Z,100444.50
2024-01-05T10:31:14.917Z,100439.31
2024-01-05T10:34:19.016Z,100434.97
2024-01-05T10:37:24.529Z,100410.00
2024-01-05T10:40:28.425Z,100409.16
2024-01-05T10:43:32.422Z,100416.78
2024-01-05T10:46:38.637Z,100405.53
2024-01-05T10:49:42.970Z,100400.41
2024-01-05T10:52:48.435Z,100386.63
2024-01-05T10:55:52.907Z,100370.28
2024-01-05T10:58:56.860Z,100371.16
2024-01-05T11:02:03.876Z,100358.22
2024-01-05T11:05:11.113Z,100354.75
2024-01-05T11:08:31.529Z,100345.94
2024-01-05T11:12:03.956Z,100340.94
2024-01-05T11:15:33.297Z,100323.69
2024-01-05T11:19:17.190Z,100321.13
2024-01-05T11:22:28.812Z,100321.13
2024-01-05T11:25:34.385Z,100323.69
2024-01-05T11:28:40.182Z,100302.22
2024-01-05T11:31:54.505Z,100297.00
2024-01-05T11:34:59.062Z,100298.72
2024-01-05T11:38:09.140Z,100296.09
2024-01-05T11:41:21.324Z,100291.78
2024-01-05T11:44:35.090Z,100290.09
2024-01-05T11:47:46.672Z,100281.44
2024-01-05T11:50:50.766Z,100275.41
2024-01-05T11:53:54.825Z,100271.09
2024-01-05T11:57:02.046Z,100268.50
2024-01-05T12:00:07.418Z,100259.84
2024-01-05T12:03:11.467Z,100253.81
2024-01-05T12:06:16.731Z,100259.88
2024-01-05T12:09:21.041Z,100255.53
2024-01-05T12:12:27.266Z,100247.81
2024-01-05T12:15:44.231Z,100243.44
2024-01-05T12:18:54.347Z,100226.22
2024-01-05T12:21:58.373Z,100226.25
2024-01-05T12:25:02.434Z,100212.53
2024-01-05T12:28:08.229Z,100212.50
2024-01-05T12:31:13.341Z,100207.28
2024-01-05T12:34:18.964Z,100210.66
2024-01-05T12:37:22.812Z,100212.44
2024-01-05T12:40:28.189Z,100202.19
2024-01-05T12:43:33.797Z,100195.25
2024-01-05T12:46:44.398Z,100191.88
2024-01-05T12:49:48.382Z,100197.84
2024-01-05T12:52:52.783Z,100187.53
2024-01-05T12:55:56.554Z,100185.81
2024-01-05T12:59:04.028Z,100195.28
2024-01-05T13:02:08.433Z,100193.63
2024-01-05T13:05:30.869Z,100210.88
2024-01-05T13:08:36.492Z,100216.16
2024-01-05T13:11:40.586Z,100225.59
2024-01-05T13:14:46.305Z,100231.69
2024-01-05T13:17:52.990Z,100241.16
2024-01-05T13:20:56.847Z,100241.13
2024-01-05T13:24:00.806Z,100248.06
2024-01-05T13:27:06.722Z,100259.28
2024-01-05T13:30:15.304Z,100269.56
2024-01-05T13:33:19.581Z,100280.81
2024-01-05T13:36:23.642Z,100295.47
2024-01-05T13:39:27.701Z,100303.22
2024-01-05T13:42:31.819Z,100315.25
2024-01-05T13:45:55.679Z,100329.00
2024-01-05T13:48:59.898Z,100338.50
2024-01-05T13:52:04.428Z,100355.72
2024-01-05T13:55:09.514Z,100365.19
2024-01-05T13:58:13.313Z,100378.97
2024-01-05T14:01:18.649Z,100384.16
2024-01-05T14:04:22.642Z,100375.59
2024-01-05T14:07:26.462Z,100380.81
2024-01-05T14:10:31.643Z,100391.16
2024-01-05T14:13:35.416Z,100399.78
2024-01-05T14:16:43.325Z,100391.25
2024-01-05T14:19:48.339Z,100386.06
2024-01-05T14:22:52.278Z,100383.47
2024-01-05T14:25:56.165Z,100386.06
2024-01-05T14:29:00.118Z,100398.94
2024-01-05T14:32:06.046Z,100395.50
2024-01-05T14:35:10.588Z,100400.69
2024-01-05T14:38:14.566Z,100404.97
2024-01-05T14:41:19.292Z,100414.44
2024-01-05T14:44:23.301Z,100417.03
2024-01-05T14:47:29.164Z,100424.78
2024-01-05T14:50:33.088Z,100430.81
2024-01-05T14:53:40.340Z,100435.97
2024-01-05T14:56:47.639Z,100448.88
2024-01-05T14:59:51.524Z,100460.94
2024-01-05T15:02:56.891Z,100460.09
2024-01-05T15:06:01.508Z,100469.56
2024-01-05T15:09:06.625Z,100481.63
2024-01-05T15:12:10.524Z,100487.63
2024-01-05T15:15:31.982Z,100498.84
2024-01-05T15:18:37.291Z,100498.84
2024-01-05T15:21:41.342Z,100512.59
2024-01-05T15:24:46.670Z,100514.31
2024-01-05T15:27:53.815Z,100518.63
2024-01-05T15:30:59.462Z,100517.78
2024-01-05T15:34:05.393Z,100546.19
2024-01-05T15:37:09.223Z,100542.72
2024-01-05T15:40:22.321Z,100557.34
2024-01-05T15:43:34.183Z,100562.53
2024-01-05T15:46:38.100Z,100567.72
2024-01-05T15:49:43.668Z,100573.72
2024-01-05T15:52:47.656Z,100578.91
2024-01-05T15:55:58.288Z,100591.81
2024-01-05T15:59:03.484Z,100592.66
2024-01-05T16:02:08.176Z,100597.81
2024-01-05T16:05:13.386Z,100604.72
2024-01-05T16:08:18.704Z,100614.22
2024-01-05T16:11:31.110Z,100618.50
2024-01-05T16:14:35.015Z,100624.53
2024-01-05T16:17:38.819Z,100624.50
2024-01-05T16:20:46.901Z,100629.69
2024-01-05T16:23:50.990Z,100630.56
2024-01-05T16:26:54.792Z,100643.47
2024-01-05T16:29:58.569Z,100649.50
2024-01-05T16:33:02.445Z,100658.97
2024-01-05T16:36:13.820Z,100663.25
2024-01-05T16:39:18.690Z,100665.84
2024-01-05T16:42:22.491Z,100670.16
2024-01-05T16:45:26.348Z,100677.06
2024-01-05T16:48:30.208Z,100678.78
2024-01-05T16:51:35.479Z,100686.50
2024-01-05T16:54:39.521Z,100695.09
2024-01-05T16:57:43.393Z,100695.97
2024-01-05T17:00:47.349Z,100697.72
2024-01-05T17:03:52.185Z,100697.72
2024-01-05T17:06:59.284Z,100702.84
2024-01-05T17:10:03.665Z,100707.16
2024-01-05T17:13:07.542Z,100723.50
2024-01-05T17:16:11.887Z,100726.97
2024-01-05T17:19:16.020Z,100722.66
2024-01-05T17:22:21.443Z,100720.91
2024-01-05T17:25:25.381Z,100726.09
2024-01-05T17:28:30.255Z,100732.94
2024-01-05T17:31:34.354Z,100735.56
2024-01-05T17:34:38.325Z,100739.00
2024-01-05T17:37:43.801Z,100748.47
2024-01-05T17:40:47.737Z,100755.34
2024-01-05T17:43:51.709Z,100760.50
2024-01-05T17:46:55.673Z,100764.81
2024-01-05T17:49:59.849Z,100767.41
2024-01-05T17:53:05.469Z,100772.56
2024-01-05T17:56:09.964Z,100782.91
2024-01-05T17:59:13.888Z,100782.91
2024-01-05T18:02:17.835Z,100775.16
2024-01-05T18:05:21.688Z,100781.16
2024-01-05T18:08:27.464Z,100788.06
2024-01-05T18:11:31.477Z,100783.75
2024-01-05T18:14:37.065Z,100790.66
2024-01-05T18:17:41.015Z,100800.09
2024-01-05T18:20:45.507Z,100808.72
2024-01-05T18:23:50.992Z,100799.22
2024-01-05T18:26:54.801Z,100810.41
2024-01-05T18:30:02.572Z,100823.31
2024-01-05T18:33:07.371Z,100819.03
2024-01-05T18:36:11.984Z,100827.63
2024-01-05T18:39:17.323Z,100832.78
2024-01-05T18:42:21.883Z,100831.06
2024-01-05T18:45:26.675Z,100837.97
2024-01-05T18:48:31.187Z,100842.28
2024-01-05T18:51:35.122Z,100841.41
2024-01-05T18:54:40.304Z,100851.72
2024-01-05T18:57:44.141Z,100860.34
2024-01-05T19:00:47.980Z,100853.44
2024-01-05T19:03:52.782Z,100861.22
2024-01-05T19:06:56.664Z,100864.63
2024-01-05T19:10:02.013Z,100875.78
2024-01-05T19:13:06.230Z,100875.81
2024-01-05T19:16:10.136Z,100880.97
2024-01-05T19:19:16.942Z,100879.25
2024-01-05T19:22:23.659Z,100877.53
2024-01-05T19:25:28.876Z,100880.13
2024-01-05T19:28:32.682Z,100889.59
2024-01-05T19:31:43.053Z,100889.63
2024-01-05T19:34:47.084Z,100888.78
2024-01-05T19:37:51.879Z,100891.34
2024-01-05T19:40:57.065Z,100898.22
2024-01-05T19:44:00.850Z,100901.69
2024-01-05T19:47:04.845Z,100915.44
2024-01-05T19:50:09.686Z,100922.38
2024-01-05T19:53:13.441Z,100931.84
2024-01-05T19:56:20.774Z,100931.88
2024-01-05T19:59:25.038Z,100937.00
2024-01-05T20:02:29.942Z,100929.19
2024-01-05T20:05:34.149Z,100931.78
2024-01-05T20:08:38.793Z,100934.38
2024-01-05T20:11:45.446Z,100933.50
2024-01-05T20:14:49.282Z,100943.84
2024-01-05T20:17:53.170Z,100942.97
2024-01-05T20:20:57.230Z,100949.88
2024-01-05T20:24:02.262Z,100955.00
2024-01-05T20:27:10.319Z,100965.31
2024-01-05T20:30:15.755Z,100969.66
2024-01-05T20:33:20.532Z,100967.09
2024-01-05T20:36:24.784Z,100964.50
2024-01-05T20:39:29.067Z,100967.06
2024-01-05T20:42:34.358Z,100979.16
2024-01-05T20:45:38.290Z,100986.03
2024-01-05T20:48:42.335Z,100981.72
2024-01-05T20:51:47.123Z,100982.56
2024-01-05T20:54:51.301Z,100992.00
2024-01-05T20:57:57.693Z,100997.16
2024-01-05T21:01:03.101Z,100995.47
2024-01-05T21:04:07.225Z,100998.03
2024-01-05T21:07:11.305Z,101004.03
2024-01-05T21:10:15.104Z,101005.81
2024-01-05T21:13:20.529Z,101004.06
2024-01-05T21:16:24.459Z,101004.06
2024-01-05T21:19:28.322Z,101003.22
2024-01-05T21:22:32.126Z,101000.63
2024-01-05T21:25:36.187Z,101005.81
2024-01-05T21:28:42.746Z,101006.63
2024-01-05T21:31:49.182Z,101014.38
2024-01-05T21:34:56.247Z,101009.22
2024-01-05T21:38:01.452Z,101019.56
2024-01-05T21:41:05.558Z,101013.47
2024-01-05T21:44:10.938Z,101019.50
2024-01-05T21:47:14.814Z,101018.63
2024-01-05T21:50:18.762Z,101023.81
2024-01-05T21:53:23.429Z,101019.50
2024-01-05T21:56:27.325Z,101029.03
2024-01-05T21:59:34.674Z,101029.84
2024-01-05T22:02:38.695Z,101028.97
2024-01-05T22:05:43.524Z,101034.13
2024-01-05T22:08:48.970Z,101035.88
2024-01-05T22:11:52.793Z,101036.78
2024-01-05T22:14:58.061Z,101035.88
2024-01-05T22:18:01.856Z,101046.19
2024-01-05T22:21:12.435Z,101049.63
2024-01-05T22:24:16.308Z,101049.59
2024-01-05T22:27:20.999Z,101059.94
2024-01-05T22:30:26.241Z,101054.75
2024-01-05T22:33:30.472Z,101065.09
2024-01-05T22:36:34.316Z,101065.94
2024-01-05T22:39:39.163Z,101073.69
2024-01-05T22:42:43.219Z,101078.84
2024-01-05T22:45:48.549Z,101083.16
2024-01-05T22:48:52.588Z,101084.91
2024-01-05T22:51:56.666Z,101104.78
2024-01-05T22:55:00.558Z,101095.25
2024-01-05T22:58:04.549Z,101102.13
2024-01-05T23:01:12.871Z,101111.66
2024-01-05T23:04:16.852Z,101115.06
2024-01-05T23:07:20.827Z,101121.91
2024-01-05T23:10:25.149Z,101124.50
2024-01-05T23:13:28.902Z,101129.72
2024-01-05T23:16:34.149Z,101125.28
2024-01-05T23:19:40.075Z,101139.13
2024-01-05T23:22:44.729Z,101139.13
2024-01-05T23:25:48.658Z,101144.28
2024-01-05T23:28:54.095Z,101143.38
2024-01-05T23:31:59.217Z,101142.53
2024-01-05T23:35:03.277Z,101145.94
2024-01-05T23:38:07.687Z,101150.25
2024-01-05T23:41:11.637Z,101145.06
2024-01-05T23:44:15.617Z,101152.84
2024-01-05T23:47:20.909Z,101150.25
2024-01-05T23:50:24.699Z,101151.03
2024-01-05T23:53:28.512Z,101156.22
2024-01-05T23:56:32.325Z,101155.31
2024-01-05T23:59:36.182Z,101160.47
